createdAt,value
2022-09-26T00:00:09.643Z,10.48
2022-09-26T00:05:09.770Z,10.16
2022-09-26T00:10:09.096Z,10.48
2022-09-26T00:15:10.400Z,10.48
2022-09-26T00:20:07.704Z,10.48
2022-09-26T00:25:07.022Z,9.57
2022-09-26T00:30:06.348Z,9.57
2022-09-26T00:35:05.658Z,9.57
2022-09-26T00:40:04.958Z,9.57
2022-09-26T00:45:06.275Z,9.57
2022-09-26T00:50:04.550Z,9.57
2022-09-26T00:55:03.852Z,10.16
2022-09-26T01:00:03.178Z,9.84
2022-09-26T01:05:00.493Z,9.84
2022-09-26T01:10:01.833Z,10.42
2022-09-26T01:15:01.179Z,10.42
2022-09-26T01:19:59.465Z,10.09
2022-09-26T01:24:59.781Z,10.42
2022-09-26T01:29:59.066Z,9.52
2022-09-26T01:34:57.360Z,9.84
2022-09-26T01:39:58.649Z,9.84
2022-09-26T01:44:55.919Z,10.16
2022-09-26T01:49:55.214Z,10.16
2022-09-26T01:54:54.532Z,10.16
2022-09-26T01:59:54.843Z,10.16
2022-09-26T02:04:53.145Z,10.16
2022-09-26T02:09:53.446Z,9.84
2022-09-26T02:14:51.723Z,10.16
2022-09-26T02:19:51.005Z,9.25
2022-09-26T02:24:51.305Z,9.57
2022-09-26T02:29:49.589Z,9.57
2022-09-26T02:34:48.896Z,9.57
2022-09-26T02:39:48.211Z,9.57
2022-09-26T02:44:47.525Z,10.16
2022-09-26T02:49:46.835Z,9.84
2022-09-26T02:54:48.126Z,9.52
2022-09-26T02:59:45.471Z,9.52
2022-09-26T03:04:44.629Z,9.52
2022-09-26T03:09:45.738Z,10.09
2022-09-26T03:14:43.038Z,9.74
2022-09-26T03:19:42.347Z,9.74
2022-09-26T03:24:43.647Z,9.74
2022-09-26T03:29:40.930Z,9.74
2022-09-26T03:34:40.216Z,9.74
2022-09-26T03:39:39.507Z,9.74
2022-09-26T03:44:38.811Z,9.39
2022-09-26T03:49:39.105Z,9.39
2022-09-26T03:54:37.429Z,9.39
2022-09-26T03:59:36.720Z,9.39
2022-09-26T04:04:37.021Z,9.74
2022-09-26T04:09:34.322Z,9.74
2022-09-26T04:14:34.640Z,9.74
2022-09-26T04:19:35.953Z,9.74
2022-09-26T04:24:33.264Z,9.74
2022-09-26T04:29:32.367Z,9.18
2022-09-26T04:34:31.673Z,9.18
2022-09-26T04:39:31.040Z,9.18
2022-09-26T04:44:32.160Z,9.74
2022-09-26T04:49:29.490Z,9.74
2022-09-26T04:54:28.815Z,9.39
2022-09-26T04:59:29.160Z,9.39
2022-09-26T05:04:27.963Z,9.39
2022-09-26T05:09:26.733Z,9.39
2022-09-26T05:14:25.857Z,9.39
2022-09-26T05:19:25.209Z,9.03
2022-09-26T05:24:25.539Z,9.39
2022-09-26T05:29:23.845Z,9.03
2022-09-26T05:34:25.140Z,9.93
2022-09-26T05:39:24.442Z,9.93
2022-09-26T05:44:21.747Z,9.93
2022-09-26T05:49:22.153Z,9.93
2022-09-26T05:54:20.264Z,9.93
2022-09-26T05:59:19.561Z,9.93
2022-09-26T06:04:18.855Z,9.93
2022-09-26T06:09:21.279Z,9.93
2022-09-26T06:14:17.363Z,9.93
2022-09-26T06:19:22.788Z,9.03
2022-09-26T06:24:15.848Z,9.03
2022-09-26T06:29:18.257Z,9.03
2022-09-26T06:34:14.335Z,9.39
2022-09-26T06:39:13.675Z,9.39
2022-09-26T06:44:14.976Z,9.39
2022-09-26T06:49:12.311Z,9.39
2022-09-26T06:54:11.447Z,9.18
2022-09-26T06:59:14.612Z,8.49
2022-09-26T07:04:10.977Z,8.61
2022-09-26T07:09:12.264Z,9.52
2022-09-26T07:14:08.419Z,9.18
2022-09-26T07:19:08.732Z,9.18
2022-09-26T07:24:08.008Z,9.52
2022-09-26T07:29:06.357Z,9.52
2022-09-26T07:34:05.501Z,9.25
2022-09-26T07:39:05.843Z,9.25
2022-09-26T07:44:58.884Z,9.84
2022-09-26T07:49:04.255Z,9.84
2022-09-26T07:54:02.569Z,9.57
2022-09-26T07:59:02.858Z,9.57
2022-09-26T08:04:02.183Z,9.25
2022-09-26T08:09:02.502Z,9.25
2022-09-26T08:13:59.814Z,9.87
2022-09-26T08:19:01.120Z,9.57
2022-09-26T08:23:58.411Z,9.25
2022-09-26T08:28:58.727Z,8.93
2022-09-26T08:33:57.004Z,8.93
2022-09-26T08:38:55.349Z,8.93
2022-09-26T08:43:56.497Z,8.93
2022-09-26T08:48:54.781Z,8.93
2022-09-26T08:53:53.069Z,9.25
2022-09-26T08:58:53.367Z,9.25
2022-09-26T09:03:52.693Z,9.25
2022-09-26T09:08:52.030Z,9.84
2022-09-26T09:13:51.194Z,8.93
2022-09-26T09:18:50.455Z,8.93
2022-09-26T09:23:49.580Z,9.25
2022-09-26T09:28:48.907Z,9.25
2022-09-26T09:33:48.247Z,9.25
2022-09-26T09:38:48.376Z,9.25
2022-09-26T09:43:46.692Z,8.93
2022-09-26T09:48:46.036Z,9.84
2022-09-26T09:53:45.361Z,9.52
2022-09-26T09:58:45.655Z,8.84
2022-09-26T10:03:43.942Z,9.18
2022-09-26T10:08:43.249Z,9.18
2022-09-26T10:13:42.537Z,9.18
2022-09-26T10:18:49.485Z,9.18
2022-09-26T10:23:40.961Z,9.18
2022-09-26T10:28:41.374Z,9.18
2022-09-26T10:33:40.525Z,9.18
2022-09-26T10:38:38.653Z,8.61
2022-09-26T10:43:38.803Z,8.61
2022-09-26T10:48:38.129Z,8.61
2022-09-26T10:53:36.433Z,9.18
2022-09-26T10:58:36.751Z,8.84
2022-09-26T11:03:37.154Z,8.49
2022-09-26T11:08:34.276Z,9.39
2022-09-26T11:13:33.587Z,9.03
2022-09-26T11:18:31.899Z,9.03
2022-09-26T11:23:33.256Z,9.03
2022-09-26T11:28:34.456Z,9.03
2022-09-26T11:33:30.564Z,9.03
2022-09-26T11:38:29.867Z,9.03
2022-09-26T11:43:30.199Z,9.03
2022-09-26T11:48:29.521Z,8.67
2022-09-26T11:53:29.840Z,9.03
2022-09-26T11:58:28.127Z,8.67
2022-09-26T12:03:26.560Z,8.29
2022-09-26T12:08:25.741Z,8.67
2022-09-26T12:13:28.067Z,8.67
2022-09-26T12:18:26.368Z,8.29
2022-09-26T12:23:23.661Z,8.67
2022-09-26T12:28:23.141Z,8.67
2022-09-26T12:33:23.285Z,9.19
2022-09-26T12:38:22.420Z,8.80
2022-09-26T12:43:21.552Z,8.80
2022-09-26T12:48:19.691Z,8.80
2022-09-26T12:53:18.820Z,9.19
2022-09-26T12:58:18.972Z,8.80
2022-09-26T13:03:18.386Z,9.19
2022-09-26T13:08:16.623Z,8.80
2022-09-26T13:13:16.742Z,9.19
2022-09-26T13:18:17.094Z,8.80
2022-09-26T13:23:14.222Z,8.80
2022-09-26T13:28:13.581Z,8.29
2022-09-26T13:33:12.716Z,7.91
2022-09-26T13:38:13.034Z,8.29
2022-09-26T13:43:12.455Z,7.91
2022-09-26T13:48:10.569Z,7.52
2022-09-26T13:53:08.733Z,7.12
2022-09-26T13:58:08.870Z,7.52
2022-09-26T14:03:08.259Z,7.12
2022-09-26T14:08:08.373Z,7.02
2022-09-26T14:13:06.738Z,7.91
2022-09-26T14:18:04.881Z,6.63
2022-09-26T14:23:07.223Z,6.23
2022-09-26T14:28:05.573Z,7.40
2022-09-26T14:33:03.873Z,7.40
2022-09-26T14:38:03.188Z,7.40
2022-09-26T14:43:02.497Z,8.14
2022-09-26T14:48:01.817Z,7.77
2022-09-26T14:53:01.114Z,8.49
2022-09-26T14:58:00.431Z,8.14
2022-09-26T15:03:01.301Z,8.84
2022-09-26T15:07:58.835Z,7.40
2022-09-26T15:12:57.957Z,7.40
2022-09-26T15:17:57.285Z,5.74
2022-09-26T15:22:58.598Z,6.51
2022-09-26T15:27:56.917Z,5.74
2022-09-26T15:32:56.312Z,6.13
2022-09-26T15:37:54.426Z,7.24
2022-09-26T15:42:55.793Z,7.94
2022-09-26T15:47:53.092Z,7.94
2022-09-26T15:52:52.415Z,8.49
2022-09-26T15:57:54.734Z,8.49
2022-09-26T16:02:51.162Z,8.49
2022-09-26T16:07:50.335Z,8.49
2022-09-26T16:12:49.452Z,7.77
2022-09-26T16:17:49.472Z,8.14
2022-09-26T16:22:47.838Z,8.14
2022-09-26T16:27:48.168Z,8.14
2022-09-26T16:32:46.450Z,8.49
2022-09-26T16:37:44.780Z,8.49
2022-09-26T16:42:45.078Z,8.49
2022-09-26T16:47:44.362Z,8.84
2022-09-26T16:52:44.669Z,7.94
2022-09-26T16:57:42.815Z,8.27
2022-09-26T17:02:42.266Z,8.61
2022-09-26T17:07:42.513Z,8.61
2022-09-26T17:12:41.671Z,8.61
2022-09-26T17:17:40.799Z,8.61
2022-09-26T17:22:39.140Z,8.93
2022-09-26T17:27:38.286Z,8.61
2022-09-26T17:32:38.455Z,8.61
2022-09-26T17:37:37.575Z,8.61
2022-09-26T17:42:34.911Z,8.61
2022-09-26T17:47:36.249Z,8.61
2022-09-26T17:52:34.642Z,8.61
2022-09-26T17:57:37.107Z,7.70
2022-09-26T18:02:34.006Z,7.70
2022-09-26T18:07:32.167Z,7.70
2022-09-26T18:12:32.538Z,7.70
2022-09-26T18:17:31.641Z,8.61
2022-09-26T18:22:31.271Z,7.70
2022-09-26T18:27:30.550Z,8.02
2022-09-26T18:32:29.939Z,8.02
2022-09-26T18:37:27.840Z,8.02
2022-09-26T18:42:27.201Z,8.02
2022-09-26T18:47:26.205Z,7.70
2022-09-26T18:52:25.312Z,8.61
2022-09-26T18:57:24.681Z,9.25
2022-09-26T19:02:24.334Z,8.93
2022-09-26T19:07:23.132Z,8.61
2022-09-26T19:12:24.342Z,9.52
2022-09-26T19:17:22.745Z,9.74
2022-09-26T19:22:21.638Z,9.39
2022-09-26T19:27:20.775Z,9.39
2022-09-26T19:32:19.883Z,9.39
2022-09-26T19:37:19.254Z,9.39
2022-09-26T19:42:18.633Z,9.03
2022-09-26T19:47:16.657Z,9.03
2022-09-26T19:52:16.861Z,9.03
2022-09-26T19:57:15.976Z,9.03
2022-09-26T20:02:15.255Z,9.03
2022-09-26T20:07:13.374Z,9.03
2022-09-26T20:12:13.700Z,9.39
2022-09-26T20:17:13.182Z,9.03
2022-09-26T20:22:10.383Z,9.03
2022-09-26T20:27:10.521Z,9.39
2022-09-26T20:32:14.735Z,9.39
2022-09-26T20:37:09.815Z,9.39
2022-09-26T20:42:10.129Z,9.03
2022-09-26T20:47:08.503Z,9.03
2022-09-26T20:52:05.617Z,9.56
2022-09-26T20:57:07.933Z,9.56
2022-09-26T21:02:06.261Z,9.19
2022-09-26T21:07:05.527Z,9.19
2022-09-26T21:12:03.838Z,8.80
2022-09-26T21:17:04.257Z,8.80
2022-09-26T21:22:02.906Z,9.19
2022-09-26T21:27:03.651Z,8.80
2022-09-26T21:32:01.951Z,8.80
2022-09-26T21:37:02.292Z,8.41
2022-09-26T21:41:59.386Z,8.80
2022-09-26T21:46:57.697Z,9.19
2022-09-26T21:51:59.068Z,9.19
2022-09-26T21:56:57.161Z,9.19
2022-09-26T22:01:56.591Z,9.19
2022-09-26T22:06:55.731Z,8.80
2022-09-26T22:11:56.044Z,8.80
2022-09-26T22:16:54.419Z,8.00
2022-09-26T22:21:54.539Z,8.41
2022-09-26T22:26:53.834Z,8.41
2022-09-26T22:31:52.127Z,9.29
2022-09-26T22:36:51.395Z,9.29
2022-09-26T22:41:50.704Z,8.89
2022-09-26T22:46:50.025Z,8.89
2022-09-26T22:51:49.347Z,8.00
2022-09-26T22:56:48.659Z,8.00
2022-09-26T23:01:48.078Z,8.41
2022-09-26T23:06:47.238Z,8.41
2022-09-26T23:11:46.566Z,8.41
2022-09-26T23:16:45.951Z,8.41
2022-09-26T23:21:45.079Z,7.52
2022-09-26T23:26:45.448Z,7.91
2022-09-26T23:31:43.561Z,8.29
2022-09-26T23:36:42.893Z,8.29
2022-09-26T23:41:43.214Z,7.91
2022-09-26T23:46:42.520Z,8.67
2022-09-26T23:51:40.835Z,8.29
2022-09-26T23:56:40.938Z,8.29
